sensor_id;sensor_type;location;lat;lon;timestamp;pressure;altitude;pressure_sealevel;temperature;humidity
56713;BME280;42589;45.536;9.032;2023-05-23T00:02:19;99490.56;;;47.70;13.50
56713;BME280;42589;45.536;9.032;2023-05-23T00:05:20;99487.16;;;48.03;13.29
56713;BME280;42589;45.536;9.032;2023-05-23T00:08:22;99491.13;;;48.13;13.14
56713;BME280;42589;45.536;9.032;2023-05-23T00:11:24;99488.31;;;47.32;13.62
56713;BME280;42589;45.536;9.032;2023-05-23T00:14:27;99485.50;;;48.09;13.51
56713;BME280;42589;45.536;9.032;2023-05-23T00:17:33;99482.75;;;47.99;13.36
56713;BME280;42589;45.536;9.032;2023-05-23T00:20:36;99475.44;;;47.42;13.84
56713;BME280;42589;45.536;9.032;2023-05-23T00:23:36;99485.41;;;47.57;13.37
56713;BME280;42589;45.536;9.032;2023-05-23T00:26:37;99479.91;;;47.39;13.75
56713;BME280;42589;45.536;9.032;2023-05-23T00:29:37;99479.78;;;47.57;13.67
56713;BME280;42589;45.536;9.032;2023-05-23T00:32:38;99471.41;;;47.47;13.49
56713;BME280;42589;45.536;9.032;2023-05-23T00:35:43;99473.41;;;48.16;13.18
56713;BME280;42589;45.536;9.032;2023-05-23T00:38:43;99469.47;;;47.22;13.92
56713;BME280;42589;45.536;9.032;2023-05-23T00:41:47;99474.75;;;48.87;12.92
56713;BME280;42589;45.536;9.032;2023-05-23T00:44:51;99472.47;;;47.74;13.50
56713;BME280;42589;45.536;9.032;2023-05-23T00:47:52;99468.16;;;47.52;13.36
56713;BME280;42589;45.536;9.032;2023-05-23T00:50:54;99467.19;;;47.80;13.77
56713;BME280;42589;45.536;9.032;2023-05-23T00:53:55;99461.09;;;46.97;14.00
56713;BME280;42589;45.536;9.032;2023-05-23T00:56:57;99456.03;;;47.62;13.79
56713;BME280;42589;45.536;9.032;2023-05-23T00:59:58;99443.53;;;46.64;13.94
56713;BME280;42589;45.536;9.032;2023-05-23T01:02:59;99448.69;;;46.94;14.14
56713;BME280;42589;45.536;9.032;2023-05-23T01:06:00;99451.81;;;47.21;13.83
56713;BME280;42589;45.536;9.032;2023-05-23T01:09:01;99450.28;;;46.92;13.80
56713;BME280;42589;45.536;9.032;2023-05-23T01:15:18;99451.06;;;47.87;13.58
56713;BME280;42589;45.536;9.032;2023-05-23T01:18:36;99459.63;;;48.25;13.32
56713;BME280;42589;45.536;9.032;2023-05-23T01:21:38;99440.94;;;47.27;13.78
56713;BME280;42589;45.536;9.032;2023-05-23T01:24:54;99441.19;;;48.17;13.33
56713;BME280;42589;45.536;9.032;2023-05-23T01:28:00;99444.03;;;47.51;13.42
56713;BME280;42589;45.536;9.032;2023-05-23T01:31:03;99446.59;;;47.16;13.97
56713;BME280;42589;45.536;9.032;2023-05-23T01:34:04;99448.69;;;46.87;14.02
56713;BME280;42589;45.536;9.032;2023-05-23T01:37:09;99446.38;;;47.63;13.46
56713;BME280;42589;45.536;9.032;2023-05-23T01:40:10;99438.22;;;46.95;13.97
56713;BME280;42589;45.536;9.032;2023-05-23T01:43:11;99432.69;;;46.48;14.13
56713;BME280;42589;45.536;9.032;2023-05-23T01:46:13;99435.81;;;46.93;13.74
56713;BME280;42589;45.536;9.032;2023-05-23T01:49:15;99434.66;;;46.62;14.22
56713;BME280;42589;45.536;9.032;2023-05-23T01:52:18;99434.91;;;47.21;13.86
56713;BME280;42589;45.536;9.032;2023-05-23T01:55:21;99439.94;;;47.62;13.25
56713;BME280;42589;45.536;9.032;2023-05-23T01:58:23;99442.31;;;46.76;13.76
56713;BME280;42589;45.536;9.032;2023-05-23T02:01:24;99435.50;;;46.52;13.87
56713;BME280;42589;45.536;9.032;2023-05-23T02:04:26;99438.16;;;47.13;13.78
56713;BME280;42589;45.536;9.032;2023-05-23T02:07:27;99438.66;;;46.83;13.70
56713;BME280;42589;45.536;9.032;2023-05-23T02:10:28;99436.28;;;46.56;14.02
56713;BME280;42589;45.536;9.032;2023-05-23T02:13:29;99438.25;;;46.91;13.70
56713;BME280;42589;45.536;9.032;2023-05-23T02:16:29;99435.88;;;46.72;13.93
56713;BME280;42589;45.536;9.032;2023-05-23T02:19:30;99437.03;;;46.82;13.65
56713;BME280;42589;45.536;9.032;2023-05-23T02:22:31;99434.69;;;46.73;13.69
56713;BME280;42589;45.536;9.032;2023-05-23T02:25:32;99437.94;;;46.39;13.98
56713;BME280;42589;45.536;9.032;2023-05-23T02:28:33;99443.59;;;46.25;14.21
56713;BME280;42589;45.536;9.032;2023-05-23T02:31:33;99439.91;;;46.21;14.27
56713;BME280;42589;45.536;9.032;2023-05-23T02:34:34;99433.81;;;45.51;14.71
56713;BME280;42589;45.536;9.032;2023-05-23T02:37:35;99437.91;;;46.53;13.86
56713;BME280;42589;45.536;9.032;2023-05-23T02:40:36;99433.53;;;46.31;13.94
56713;BME280;42589;45.536;9.032;2023-05-23T02:43:37;99432.28;;;46.46;13.91
56713;BME280;42589;45.536;9.032;2023-05-23T02:46:38;99433.06;;;46.72;13.87
56713;BME280;42589;45.536;9.032;2023-05-23T02:49:39;99429.50;;;46.39;14.14
56713;BME280;42589;45.536;9.032;2023-05-23T02:52:39;99435.94;;;46.25;14.24
56713;BME280;42589;45.536;9.032;2023-05-23T02:55:41;99431.84;;;46.84;13.65
56713;BME280;42589;45.536;9.032;2023-05-23T02:58:42;99442.69;;;46.78;13.93
56713;BME280;42589;45.536;9.032;2023-05-23T03:01:42;99433.09;;;46.75;13.81
56713;BME280;42589;45.536;9.032;2023-05-23T03:04:43;99439.88;;;46.85;14.01
56713;BME280;42589;45.536;9.032;2023-05-23T03:07:44;99436.25;;;46.81;13.79
56713;BME280;42589;45.536;9.032;2023-05-23T03:10:44;99437.91;;;46.57;13.79
56713;BME280;42589;45.536;9.032;2023-05-23T03:13:46;99436.34;;;46.27;13.99
56713;BME280;42589;45.536;9.032;2023-05-23T03:16:47;99432.56;;;45.37;14.69
56713;BME280;42589;45.536;9.032;2023-05-23T03:19:48;99431.34;;;45.31;14.70
56713;BME280;42589;45.536;9.032;2023-05-23T03:22:48;99425.50;;;46.33;13.88
56713;BME280;42589;45.536;9.032;2023-05-23T03:25:49;99423.41;;;46.80;13.52
56713;BME280;42589;45.536;9.032;2023-05-23T03:28:49;99430.25;;;46.68;13.48
56713;BME280;42589;45.536;9.032;2023-05-23T03:31:50;99428.66;;;46.71;13.89
56713;BME280;42589;45.536;9.032;2023-05-23T03:34:51;99427.47;;;46.65;13.79
56713;BME280;42589;45.536;9.032;2023-05-23T03:37:52;99431.84;;;46.80;13.67
56713;BME280;42589;45.536;9.032;2023-05-23T03:40:53;99434.66;;;45.58;14.94
56713;BME280;42589;45.536;9.032;2023-05-23T03:43:54;99433.91;;;46.40;13.83
56713;BME280;42589;45.536;9.032;2023-05-23T03:46:56;99434.09;;;47.25;13.77
56713;BME280;42589;45.536;9.032;2023-05-23T03:49:57;99436.31;;;46.49;14.06
56713;BME280;42589;45.536;9.032;2023-05-23T03:53:00;99436.72;;;46.40;14.17
56713;BME280;42589;45.536;9.032;2023-05-23T03:56:02;99437.50;;;46.66;13.83
56713;BME280;42589;45.536;9.032;2023-05-23T03:59:02;99444.34;;;46.15;13.92
56713;BME280;42589;45.536;9.032;2023-05-23T04:02:04;99436.34;;;46.35;14.14
56713;BME280;42589;45.536;9.032;2023-05-23T04:05:05;99449.97;;;46.47;14.32
56713;BME280;42589;45.536;9.032;2023-05-23T04:08:06;99442.75;;;46.46;14.09
56713;BME280;42589;45.536;9.032;2023-05-23T04:11:07;99445.53;;;46.49;14.00
56713;BME280;42589;45.536;9.032;2023-05-23T04:14:08;99443.09;;;46.76;13.61
56713;BME280;42589;45.536;9.032;2023-05-23T04:17:08;99441.53;;;46.36;14.08
56713;BME280;42589;45.536;9.032;2023-05-23T04:20:12;99445.53;;;46.57;13.94
56713;BME280;42589;45.536;9.032;2023-05-23T04:23:12;99454.78;;;46.57;14.20
56713;BME280;42589;45.536;9.032;2023-05-23T04:26:13;99456.31;;;47.01;13.60
56713;BME280;42589;45.536;9.032;2023-05-23T04:29:13;99458.00;;;46.34;13.97
56713;BME280;42589;45.536;9.032;2023-05-23T04:32:14;99462.75;;;47.02;14.00
56713;BME280;42589;45.536;9.032;2023-05-23T04:35:16;99454.69;;;47.00;13.86
56713;BME280;42589;45.536;9.032;2023-05-23T04:38:17;99460.69;;;47.09;13.87
56713;BME280;42589;45.536;9.032;2023-05-23T04:41:17;99457.50;;;47.07;13.70
56713;BME280;42589;45.536;9.032;2023-05-23T04:44:22;99468.69;;;47.18;13.61
56713;BME280;42589;45.536;9.032;2023-05-23T04:47:23;99465.06;;;47.21;13.65
56713;BME280;42589;45.536;9.032;2023-05-23T04:50:27;99475.88;;;47.26;13.57
56713;BME280;42589;45.536;9.032;2023-05-23T04:53:30;99472.63;;;47.42;13.43
56713;BME280;42589;45.536;9.032;2023-05-23T04:56:31;99467.97;;;46.92;13.91
56713;BME280;42589;45.536;9.032;2023-05-23T04:59:32;99467.63;;;46.47;14.09
56713;BME280;42589;45.536;9.032;2023-05-23T05:02:33;99459.03;;;47.22;13.77
56713;BME280;42589;45.536;9.032;2023-05-23T05:05:34;99469.88;;;47.24;13.42
56713;BME280;42589;45.536;9.032;2023-05-23T05:08:35;99457.13;;;46.84;13.92
56713;BME280;42589;45.536;9.032;2023-05-23T05:11:35;99468.44;;;47.75;13.54
56713;BME280;42589;45.536;9.032;2023-05-23T05:14:36;99472.47;;;47.71;13.19
56713;BME280;42589;45.536;9.032;2023-05-23T05:17:38;99469.53;;;47.92;13.22
56713;BME280;42589;45.536;9.032;2023-05-23T05:20:38;99480.94;;;47.71;13.24
56713;BME280;42589;45.536;9.032;2023-05-23T05:23:39;99475.78;;;47.55;13.33
56713;BME280;42589;45.536;9.032;2023-05-23T05:26:40;99482.91;;;47.77;13.51
56713;BME280;42589;45.536;9.032;2023-05-23T05:29:41;99482.53;;;47.72;13.49
56713;BME280;42589;45.536;9.032;2023-05-23T05:32:42;99475.19;;;47.88;13.37
56713;BME280;42589;45.536;9.032;2023-05-23T05:35:45;99466.97;;;48.61;12.79
56713;BME280;42589;45.536;9.032;2023-05-23T05:38:46;99480.25;;;48.08;13.52
56713;BME280;42589;45.536;9.032;2023-05-23T05:41:47;99483.91;;;48.12;13.57
56713;BME280;42589;45.536;9.032;2023-05-23T05:44:48;99482.63;;;48.65;13.22
56713;BME280;42589;45.536;9.032;2023-05-23T05:47:49;99479.84;;;48.62;13.44
56713;BME280;42589;45.536;9.032;2023-05-23T05:50:50;99479.28;;;48.77;12.96
56713;BME280;42589;45.536;9.032;2023-05-23T05:53:51;99488.09;;;50.09;12.26
56713;BME280;42589;45.536;9.032;2023-05-23T05:57:01;99481.69;;;49.47;12.79
56713;BME280;42589;45.536;9.032;2023-05-23T06:00:06;99481.53;;;48.93;13.26
56713;BME280;42589;45.536;9.032;2023-05-23T06:03:18;99493.72;;;50.09;12.53
56713;BME280;42589;45.536;9.032;2023-05-23T06:06:19;99497.13;;;49.70;12.79
56713;BME280;42589;45.536;9.032;2023-05-23T06:09:20;99503.03;;;50.33;12.39
56713;BME280;42589;45.536;9.032;2023-05-23T06:12:21;99488.81;;;48.94;13.06
56713;BME280;42589;45.536;9.032;2023-05-23T06:15:22;99491.72;;;51.00;11.88
56713;BME280;42589;45.536;9.032;2023-05-23T06:18:22;99496.56;;;50.80;11.78
56713;BME280;42589;45.536;9.032;2023-05-23T06:21:24;99494.56;;;50.33;12.37
56713;BME280;42589;45.536;9.032;2023-05-23T06:24:25;99494.34;;;49.97;12.73
56713;BME280;42589;45.536;9.032;2023-05-23T06:27:25;99482.03;;;51.01;12.35
56713;BME280;42589;45.536;9.032;2023-05-23T06:30:27;99491.41;;;50.75;12.19
56713;BME280;42589;45.536;9.032;2023-05-23T06:33:28;99488.38;;;50.85;12.09
56713;BME280;42589;45.536;9.032;2023-05-23T06:36:30;99488.44;;;51.42;11.70
56713;BME280;42589;45.536;9.032;2023-05-23T06:39:31;99487.31;;;51.75;11.33
56713;BME280;42589;45.536;9.032;2023-05-23T06:42:31;99486.53;;;51.39;11.96
56713;BME280;42589;45.536;9.032;2023-05-23T06:45:32;99479.88;;;51.25;12.14
56713;BME280;42589;45.536;9.032;2023-05-23T06:48:34;99481.31;;;50.03;12.63
56713;BME280;42589;45.536;9.032;2023-05-23T06:51:35;99483.00;;;51.51;11.62
56713;BME280;42589;45.536;9.032;2023-05-23T06:54:38;99488.53;;;51.38;11.43
56713;BME280;42589;45.536;9.032;2023-05-23T06:57:40;99479.31;;;52.85;10.90
56713;BME280;42589;45.536;9.032;2023-05-23T07:00:40;99481.84;;;51.48;11.85
56713;BME280;42589;45.536;9.032;2023-05-23T07:03:41;99485.75;;;52.40;11.42
56713;BME280;42589;45.536;9.032;2023-05-23T07:06:44;99479.19;;;52.27;10.72
56713;BME280;42589;45.536;9.032;2023-05-23T07:09:45;99479.19;;;52.27;11.75
56713;BME280;42589;45.536;9.032;2023-05-23T07:12:46;99475.03;;;51.26;11.80
56713;BME280;42589;45.536;9.032;2023-05-23T07:15:46;99480.00;;;51.02;11.57
56713;BME280;42589;45.536;9.032;2023-05-23T07:18:47;99467.97;;;49.77;12.26
56713;BME280;42589;45.536;9.032;2023-05-23T07:21:51;99476.56;;;53.65;10.50
56713;BME280;42589;45.536;9.032;2023-05-23T07:24:52;99471.16;;;52.25;10.93
56713;BME280;42589;45.536;9.032;2023-05-23T07:27:53;99482.22;;;52.81;10.51
56713;BME280;42589;45.536;9.032;2023-05-23T07:30:54;99482.44;;;51.92;11.37
56713;BME280;42589;45.536;9.032;2023-05-23T07:33:56;99484.75;;;52.92;10.58
56713;BME280;42589;45.536;9.032;2023-05-23T07:36:57;99489.81;;;53.43;10.33
56713;BME280;42589;45.536;9.032;2023-05-23T07:39:59;99495.06;;;54.08;10.00
56713;BME280;42589;45.536;9.032;2023-05-23T07:43:00;99485.84;;;53.91;10.20
56713;BME280;42589;45.536;9.032;2023-05-23T07:46:00;99488.13;;;53.58;9.93
56713;BME280;42589;45.536;9.032;2023-05-23T07:49:01;99474.75;;;52.87;10.33
56713;BME280;42589;45.536;9.032;2023-05-23T07:52:02;99481.88;;;52.34;10.60
56713;BME280;42589;45.536;9.032;2023-05-23T07:55:04;99480.44;;;53.17;10.26
56713;BME280;42589;45.536;9.032;2023-05-23T07:58:05;99474.47;;;52.53;10.57
56713;BME280;42589;45.536;9.032;2023-05-23T08:01:06;99483.25;;;53.84;9.93
56713;BME280;42589;45.536;9.032;2023-05-23T08:04:07;99472.44;;;53.79;10.61
56713;BME280;42589;45.536;9.032;2023-05-23T08:07:07;99473.34;;;53.63;10.78
56713;BME280;42589;45.536;9.032;2023-05-23T08:10:08;99471.56;;;52.56;10.81
56713;BME280;42589;45.536;9.032;2023-05-23T08:13:09;99475.78;;;53.10;10.52
56713;BME280;42589;45.536;9.032;2023-05-23T08:16:13;99471.41;;;53.60;10.14
56713;BME280;42589;45.536;9.032;2023-05-23T08:19:13;99480.50;;;54.06;9.85
56713;BME280;42589;45.536;9.032;2023-05-23T08:22:13;99477.81;;;53.77;10.02
56713;BME280;42589;45.536;9.032;2023-05-23T08:25:14;99468.16;;;51.99;11.27
56713;BME280;42589;45.536;9.032;2023-05-23T08:28:15;99470.59;;;53.59;10.21
56713;BME280;42589;45.536;9.032;2023-05-23T08:31:16;99476.72;;;54.22;10.43
56713;BME280;42589;45.536;9.032;2023-05-23T08:34:16;99474.59;;;52.16;11.14
56713;BME280;42589;45.536;9.032;2023-05-23T08:37:17;99475.03;;;53.48;10.87
56713;BME280;42589;45.536;9.032;2023-05-23T08:40:20;99481.56;;;53.99;11.13
56713;BME280;42589;45.536;9.032;2023-05-23T08:43:22;99466.41;;;53.39;10.62
56713;BME280;42589;45.536;9.032;2023-05-23T08:46:22;99468.66;;;52.43;11.04
56713;BME280;42589;45.536;9.032;2023-05-23T08:49:24;99468.25;;;53.84;10.35
56713;BME280;42589;45.536;9.032;2023-05-23T08:52:26;99472.31;;;54.08;10.29
56713;BME280;42589;45.536;9.032;2023-05-23T08:55:29;99468.84;;;52.82;10.64
56713;BME280;42589;45.536;9.032;2023-05-23T08:58:31;99469.69;;;53.88;10.81
56713;BME280;42589;45.536;9.032;2023-05-23T09:01:34;99465.16;;;53.91;10.36
56713;BME280;42589;45.536;9.032;2023-05-23T09:04:35;99471.06;;;53.45;10.59
56713;BME280;42589;45.536;9.032;2023-05-23T09:07:36;99475.25;;;54.17;10.16
56713;BME280;42589;45.536;9.032;2023-05-23T09:10:37;99480.22;;;53.24;10.74
56713;BME280;42589;45.536;9.032;2023-05-23T09:13:39;99477.19;;;54.55;9.99
56713;BME280;42589;45.536;9.032;2023-05-23T09:16:39;99477.34;;;54.52;10.02
56713;BME280;42589;45.536;9.032;2023-05-23T09:19:40;99469.91;;;50.34;12.19
56713;BME280;42589;45.536;9.032;2023-05-23T09:22:46;99468.63;;;50.15;12.10
56713;BME280;42589;45.536;9.032;2023-05-23T09:25:47;99461.34;;;49.33;12.75
56713;BME280;42589;45.536;9.032;2023-05-23T09:28:48;99461.69;;;49.65;12.25
56713;BME280;42589;45.536;9.032;2023-05-23T09:31:49;99456.91;;;49.32;12.48
56713;BME280;42589;45.536;9.032;2023-05-23T09:34:57;99470.25;;;54.34;10.06
56713;BME280;42589;45.536;9.032;2023-05-23T09:37:58;99463.34;;;53.46;10.60
56713;BME280;42589;45.536;9.032;2023-05-23T09:40:59;99451.00;;;50.74;11.77
56713;BME280;42589;45.536;9.032;2023-05-23T09:44:07;99444.41;;;52.55;10.99
56713;BME280;42589;45.536;9.032;2023-05-23T09:47:08;99457.06;;;53.51;10.25
56713;BME280;42589;45.536;9.032;2023-05-23T09:50:11;99453.63;;;54.67;10.15
56713;BME280;42589;45.536;9.032;2023-05-23T09:53:12;99454.22;;;52.21;10.56
56713;BME280;42589;45.536;9.032;2023-05-23T09:56:16;99449.84;;;55.46;10.14
56713;BME280;42589;45.536;9.032;2023-05-23T09:59:17;99455.06;;;55.78;9.23
56713;BME280;42589;45.536;9.032;2023-05-23T10:05:56;99446.50;;;56.37;8.89
56713;BME280;42589;45.536;9.032;2023-05-23T10:09:04;99441.66;;;53.65;10.53
56713;BME280;42589;45.536;9.032;2023-05-23T10:15:44;99425.25;;;52.14;11.19
56713;BME280;42589;45.536;9.032;2023-05-23T10:18:52;99439.59;;;54.03;10.09
56713;BME280;42589;45.536;9.032;2023-05-23T10:22:00;99437.50;;;54.52;10.01
56713;BME280;42589;45.536;9.032;2023-05-23T10:25:03;99437.59;;;52.98;10.37
56713;BME280;42589;45.536;9.032;2023-05-23T10:28:04;99438.78;;;54.03;9.73
56713;BME280;42589;45.536;9.032;2023-05-23T10:31:05;99418.31;;;52.02;10.92
56713;BME280;42589;45.536;9.032;2023-05-23T10:40:47;99428.13;;;55.70;9.44
56713;BME280;42589;45.536;9.032;2023-05-23T10:47:09;99423.53;;;55.73;9.50
56713;BME280;42589;45.536;9.032;2023-05-23T10:50:13;99419.00;;;54.91;9.52
56713;BME280;42589;45.536;9.032;2023-05-23T10:53:41;99413.91;;;57.08;8.69
56713;BME280;42589;45.536;9.032;2023-05-23T10:56:42;99408.88;;;53.09;10.71
56713;BME280;42589;45.536;9.032;2023-05-23T10:59:44;99399.41;;;52.12;10.79
56713;BME280;42589;45.536;9.032;2023-05-23T11:02:52;99398.47;;;54.30;9.92
56713;BME280;42589;45.536;9.032;2023-05-23T11:05:54;99400.59;;;53.15;10.35
56713;BME280;42589;45.536;9.032;2023-05-23T11:09:09;99393.19;;;55.48;9.33
56713;BME280;42589;45.536;9.032;2023-05-23T11:12:10;99401.28;;;56.17;8.51
56713;BME280;42589;45.536;9.032;2023-05-23T11:18:21;99406.59;;;58.31;7.52
56713;BME280;42589;45.536;9.032;2023-05-23T11:21:22;99397.19;;;56.46;8.39
56713;BME280;42589;45.536;9.032;2023-05-23T11:27:48;99401.63;;;57.35;8.29
56713;BME280;42589;45.536;9.032;2023-05-23T11:30:49;99396.06;;;56.80;8.59
56713;BME280;42589;45.536;9.032;2023-05-23T11:33:50;99398.84;;;57.08;7.94
56713;BME280;42589;45.536;9.032;2023-05-23T11:36:54;99386.53;;;52.69;9.50
56713;BME280;42589;45.536;9.032;2023-05-23T11:39:55;99384.66;;;56.52;8.12
56713;BME280;42589;45.536;9.032;2023-05-23T11:42:56;99384.94;;;54.56;9.06
56713;BME280;42589;45.536;9.032;2023-05-23T11:46:06;99387.69;;;58.33;7.83
56713;BME280;42589;45.536;9.032;2023-05-23T11:49:10;99401.25;;;58.63;7.01
56713;BME280;42589;45.536;9.032;2023-05-23T11:52:12;99384.84;;;57.85;7.66
56713;BME280;42589;45.536;9.032;2023-05-23T11:55:13;99372.66;;;53.77;8.85
56713;BME280;42589;45.536;9.032;2023-05-23T11:58:13;99368.06;;;49.94;10.69
56713;BME280;42589;45.536;9.032;2023-05-23T12:01:14;99351.31;;;49.56;12.20
56713;BME280;42589;45.536;9.032;2023-05-23T12:04:15;99347.34;;;50.01;11.24
56713;BME280;42589;45.536;9.032;2023-05-23T12:07:19;99363.56;;;54.74;9.29
56713;BME280;42589;45.536;9.032;2023-05-23T12:10:26;99360.91;;;54.57;9.26
56713;BME280;42589;45.536;9.032;2023-05-23T12:13:28;99353.47;;;55.44;9.19
56713;BME280;42589;45.536;9.032;2023-05-23T12:16:29;99352.72;;;55.22;9.20
56713;BME280;42589;45.536;9.032;2023-05-23T12:19:29;99357.88;;;54.17;9.65
56713;BME280;42589;45.536;9.032;2023-05-23T12:22:31;99349.44;;;55.73;8.42
56713;BME280;42589;45.536;9.032;2023-05-23T12:25:40;99355.34;;;54.98;8.84
56713;BME280;42589;45.536;9.032;2023-05-23T12:28:43;99350.00;;;57.72;7.74
56713;BME280;42589;45.536;9.032;2023-05-23T12:31:48;99344.41;;;54.52;9.03
56713;BME280;42589;45.536;9.032;2023-05-23T12:34:49;99340.47;;;54.28;8.95
56713;BME280;42589;45.536;9.032;2023-05-23T12:37:55;99338.03;;;53.05;9.33
56713;BME280;42589;45.536;9.032;2023-05-23T12:41:17;99334.28;;;53.47;9.36
56713;BME280;42589;45.536;9.032;2023-05-23T12:44:21;99339.41;;;55.50;7.65
56713;BME280;42589;45.536;9.032;2023-05-23T12:47:22;99322.00;;;54.54;8.19
56713;BME280;42589;45.536;9.032;2023-05-23T12:50:23;99330.09;;;56.78;7.37
56713;BME280;42589;45.536;9.032;2023-05-23T12:53:25;99328.72;;;58.66;7.99
56713;BME280;42589;45.536;9.032;2023-05-23T12:56:26;99324.63;;;58.43;7.61
56713;BME280;42589;45.536;9.032;2023-05-23T12:59:26;99329.25;;;58.01;7.84
56713;BME280;42589;45.536;9.032;2023-05-23T13:02:27;99325.56;;;56.53;7.58
56713;BME280;42589;45.536;9.032;2023-05-23T13:05:27;99320.81;;;56.13;7.77
56713;BME280;42589;45.536;9.032;2023-05-23T13:08:28;99312.81;;;53.46;8.38
56713;BME280;42589;45.536;9.032;2023-05-23T13:11:29;99312.69;;;56.48;7.79
56713;BME280;42589;45.536;9.032;2023-05-23T13:14:30;99317.34;;;56.97;6.88
56713;BME280;42589;45.536;9.032;2023-05-23T13:17:31;99318.38;;;58.29;6.98
56713;BME280;42589;45.536;9.032;2023-05-23T13:20:32;99305.22;;;56.69;7.52
56713;BME280;42589;45.536;9.032;2023-05-23T13:23:33;99311.59;;;58.12;6.94
56713;BME280;42589;45.536;9.032;2023-05-23T13:26:35;99314.97;;;58.01;7.02
56713;BME280;42589;45.536;9.032;2023-05-23T13:29:35;99305.78;;;56.22;7.70
56713;BME280;42589;45.536;9.032;2023-05-23T13:32:36;99309.53;;;57.88;7.71
56713;BME280;42589;45.536;9.032;2023-05-23T13:35:36;99304.31;;;56.45;7.68
56713;BME280;42589;45.536;9.032;2023-05-23T13:38:37;99308.69;;;57.49;7.21
56713;BME280;42589;45.536;9.032;2023-05-23T13:41:37;99286.47;;;52.94;9.42
56713;BME280;42589;45.536;9.032;2023-05-23T13:44:38;99287.47;;;53.13;8.85
56713;BME280;42589;45.536;9.032;2023-05-23T13:47:39;99285.91;;;52.99;9.43
56713;BME280;42589;45.536;9.032;2023-05-23T13:50:41;99278.28;;;52.71;9.54
56713;BME280;42589;45.536;9.032;2023-05-23T13:53:42;99278.66;;;53.84;8.91
56713;BME280;42589;45.536;9.032;2023-05-23T13:56:43;99282.00;;;56.06;8.01
56713;BME280;42589;45.536;9.032;2023-05-23T13:59:47;99285.03;;;56.12;8.42
56713;BME280;42589;45.536;9.032;2023-05-23T14:02:48;99282.09;;;57.10;7.28
56713;BME280;42589;45.536;9.032;2023-05-23T14:05:48;99288.00;;;56.36;7.74
56713;BME280;42589;45.536;9.032;2023-05-23T14:08:49;99281.59;;;56.69;7.25
56713;BME280;42589;45.536;9.032;2023-05-23T14:11:50;99276.81;;;56.75;7.34
56713;BME280;42589;45.536;9.032;2023-05-23T14:14:51;99265.34;;;53.33;9.18
56713;BME280;42589;45.536;9.032;2023-05-23T14:17:52;99274.38;;;56.49;8.61
56713;BME280;42589;45.536;9.032;2023-05-23T14:20:54;99278.38;;;56.34;8.02
56713;BME280;42589;45.536;9.032;2023-05-23T14:23:55;99289.91;;;58.35;6.74
56713;BME280;42589;45.536;9.032;2023-05-23T14:26:56;99298.13;;;58.72;7.03
56713;BME280;42589;45.536;9.032;2023-05-23T14:29:56;99291.09;;;59.23;6.29
56713;BME280;42589;45.536;9.032;2023-05-23T14:32:57;99283.03;;;57.64;7.06
56713;BME280;42589;45.536;9.032;2023-05-23T14:35:58;99281.69;;;58.28;6.98
56713;BME280;42589;45.536;9.032;2023-05-23T14:38:58;99278.00;;;57.98;6.88
56713;BME280;42589;45.536;9.032;2023-05-23T14:42:00;99279.59;;;59.02;6.70
56713;BME280;42589;45.536;9.032;2023-05-23T14:45:02;99280.41;;;60.05;5.58
56713;BME280;42589;45.536;9.032;2023-05-23T14:48:03;99278.03;;;59.57;5.95
56713;BME280;42589;45.536;9.032;2023-05-23T14:51:04;99257.78;;;54.66;7.84
56713;BME280;42589;45.536;9.032;2023-05-23T14:54:06;99265.66;;;59.10;6.49
56713;BME280;42589;45.536;9.032;2023-05-23T14:57:06;99262.09;;;57.34;7.07
56713;BME280;42589;45.536;9.032;2023-05-23T15:00:09;99260.75;;;56.35;7.66
56713;BME280;42589;45.536;9.032;2023-05-23T15:03:10;99250.34;;;55.77;7.63
56713;BME280;42589;45.536;9.032;2023-05-23T15:06:10;99256.63;;;58.23;6.44
56713;BME280;42589;45.536;9.032;2023-05-23T15:09:11;99258.03;;;58.27;6.50
56713;BME280;42589;45.536;9.032;2023-05-23T15:12:12;99259.88;;;61.08;5.24
56713;BME280;42589;45.536;9.032;2023-05-23T15:15:14;99242.09;;;56.16;7.40
56713;BME280;42589;45.536;9.032;2023-05-23T15:18:22;99258.63;;;59.11;6.07
56713;BME280;42589;45.536;9.032;2023-05-23T15:21:24;99245.25;;;57.84;6.66
56713;BME280;42589;45.536;9.032;2023-05-23T15:24:25;99244.19;;;59.41;5.80
56713;BME280;42589;45.536;9.032;2023-05-23T15:27:26;99234.25;;;56.95;7.45
56713;BME280;42589;45.536;9.032;2023-05-23T15:30:27;99245.59;;;58.60;5.81
56713;BME280;42589;45.536;9.032;2023-05-23T15:33:28;99242.88;;;56.77;6.72
56713;BME280;42589;45.536;9.032;2023-05-23T15:36:29;99253.66;;;59.27;5.91
56713;BME280;42589;45.536;9.032;2023-05-23T15:39:29;99244.75;;;59.65;5.79
56713;BME280;42589;45.536;9.032;2023-05-23T15:42:30;99256.50;;;59.88;5.81
56713;BME280;42589;45.536;9.032;2023-05-23T15:45:31;99255.63;;;61.40;4.91
56713;BME280;42589;45.536;9.032;2023-05-23T15:48:31;99262.94;;;62.12;5.52
56713;BME280;42589;45.536;9.032;2023-05-23T15:51:33;99267.25;;;61.20;5.20
56713;BME280;42589;45.536;9.032;2023-05-23T15:54:35;99253.81;;;60.31;5.57
56713;BME280;42589;45.536;9.032;2023-05-23T15:57:35;99252.41;;;60.52;5.84
56713;BME280;42589;45.536;9.032;2023-05-23T16:00:36;99249.47;;;60.73;5.77
56713;BME280;42589;45.536;9.032;2023-05-23T16:03:36;99257.69;;;62.22;5.07
56713;BME280;42589;45.536;9.032;2023-05-23T16:06:38;99250.50;;;61.67;4.58
56713;BME280;42589;45.536;9.032;2023-05-23T16:09:42;99259.16;;;60.81;5.35
56713;BME280;42589;45.536;9.032;2023-05-23T16:12:42;99266.00;;;63.10;4.21
56713;BME280;42589;45.536;9.032;2023-05-23T16:15:46;99261.63;;;62.58;5.10
56713;BME280;42589;45.536;9.032;2023-05-23T16:18:47;99264.53;;;62.47;5.27
56713;BME280;42589;45.536;9.032;2023-05-23T16:21:48;99266.59;;;62.52;5.04
56713;BME280;42589;45.536;9.032;2023-05-23T16:24:50;99268.97;;;62.65;4.86
56713;BME280;42589;45.536;9.032;2023-05-23T16:27:50;99272.06;;;62.95;5.03
56713;BME280;42589;45.536;9.032;2023-05-23T16:30:51;99268.38;;;62.05;5.15
56713;BME280;42589;45.536;9.032;2023-05-23T16:33:52;99273.34;;;61.93;5.21
56713;BME280;42589;45.536;9.032;2023-05-23T16:36:52;99279.63;;;62.08;5.12